createdAt,value
2023-04-11T05:01:13.169Z,25.00
2023-04-11T05:02:13.231Z,25.00
2023-04-11T05:03:13.240Z,25.00
2023-04-11T05:04:13.403Z,25.00
2023-04-11T05:05:13.069Z,25.00
2023-04-11T05:06:13.032Z,25.00
2023-04-11T05:07:13.018Z,0.00
2023-04-11T05:08:13.053Z,0.00
2023-04-11T05:09:13.042Z,0.00
2023-04-11T05:10:13.064Z,0.00
2023-04-11T05:11:13.067Z,0.00
2023-04-11T05:12:13.027Z,0.00
2023-04-11T05:13:12.996Z,0.00
2023-04-11T05:14:12.970Z,0.00
2023-04-11T05:15:12.983Z,0.00
2023-04-11T05:16:13.012Z,0.00
2023-04-11T05:17:12.951Z,0.00
2023-04-11T05:18:12.970Z,0.00
2023-04-11T05:19:12.917Z,0.00
2023-04-11T05:20:13.014Z,0.00
2023-04-11T05:21:12.982Z,0.00
2023-04-11T05:22:13.010Z,0.00
2023-04-11T05:23:13.025Z,0.00
2023-04-11T05:24:13.143Z,0.00
2023-04-11T05:25:13.107Z,0.00
2023-04-11T05:26:13.200Z,0.00
2023-04-11T05:27:13.240Z,0.00
2023-04-11T05:28:13.327Z,0.00
2023-04-11T05:29:13.421Z,0.00
2023-04-11T05:30:13.419Z,0.00
2023-04-11T05:31:13.532Z,0.00
2023-04-11T05:32:13.503Z,0.00
2023-04-11T05:33:13.612Z,2.15
2023-04-11T05:34:13.590Z,24.98
2023-04-11T05:35:13.709Z,25.00
2023-04-11T05:36:13.795Z,25.87
2023-04-11T05:37:13.804Z,25.00
2023-04-11T05:38:13.841Z,25.02
2023-04-11T05:39:13.847Z,14.64
2023-04-11T05:40:13.777Z,6.72
2023-04-11T05:41:14.729Z,0.00
2023-04-11T05:42:13.795Z,0.00
2023-04-11T05:43:13.799Z,16.41
2023-04-11T05:44:13.868Z,25.00
2023-04-11T05:45:13.706Z,24.77
2023-04-11T05:46:13.873Z,25.23
2023-04-11T05:47:13.906Z,25.84
2023-04-11T05:48:15.870Z,25.83
2023-04-11T05:49:14.058Z,25.99
2023-04-11T05:50:14.131Z,25.43
2023-04-11T05:51:14.124Z,25.68
2023-04-11T05:52:14.119Z,25.27
2023-04-11T05:53:15.378Z,25.00
2023-04-11T05:54:15.368Z,24.24
2023-04-11T05:55:14.293Z,24.90
2023-04-11T05:56:15.180Z,25.00
2023-04-11T05:57:14.325Z,25.35
2023-04-11T05:58:14.347Z,25.01
2023-04-11T05:59:14.845Z,28.59
2023-04-11T06:00:14.563Z,26.05
2023-04-11T06:01:14.520Z,27.17
2023-04-11T06:02:15.569Z,34.77
2023-04-11T06:03:14.681Z,22.95
2023-04-11T06:04:14.656Z,28.08
2023-04-11T06:05:14.657Z,36.44
2023-04-11T06:06:14.573Z,35.33
2023-04-11T06:07:14.638Z,33.04
2023-04-11T06:08:15.130Z,33.14
2023-04-11T06:09:21.231Z,31.59
2023-04-11T06:10:14.655Z,33.36
2023-04-11T06:11:16.095Z,34.06
2023-04-11T06:12:14.652Z,37.07
2023-04-11T06:13:14.558Z,39.15
2023-04-11T06:14:14.600Z,40.16
2023-04-11T06:15:14.670Z,38.96
2023-04-11T06:16:14.642Z,43.20
2023-04-11T06:17:14.518Z,44.37
2023-04-11T06:18:14.554Z,46.50
2023-04-11T06:19:14.569Z,46.13
2023-04-11T06:20:14.700Z,49.63
2023-04-11T06:21:14.710Z,49.70
2023-04-11T06:22:14.636Z,46.71
2023-04-11T06:23:14.639Z,51.72
2023-04-11T06:24:14.663Z,56.04
2023-04-11T06:25:14.694Z,55.33
2023-04-11T06:26:14.754Z,54.32
2023-04-11T06:27:14.660Z,56.07
2023-04-11T06:28:14.678Z,58.87
2023-04-11T06:29:14.668Z,58.04
2023-04-11T06:30:14.807Z,58.44
2023-04-11T06:31:14.802Z,60.70
2023-04-11T06:32:14.996Z,61.69
2023-04-11T06:33:14.933Z,65.90
2023-04-11T06:34:14.900Z,65.83
2023-04-11T06:35:15.787Z,59.90
2023-04-11T06:36:22.504Z,56.02
2023-04-11T06:37:14.967Z,56.37
2023-04-11T06:38:14.936Z,56.82
2023-04-11T06:39:14.920Z,58.04
2023-04-11T06:40:14.927Z,61.31
2023-04-11T06:41:14.910Z,64.37
2023-04-11T06:42:14.922Z,66.12
2023-04-11T06:43:15.005Z,75.69
2023-04-11T06:44:14.921Z,77.94
2023-04-11T06:45:14.881Z,82.17
2023-04-11T06:46:14.948Z,84.00
2023-04-11T06:47:14.889Z,82.01
2023-04-11T06:48:14.832Z,81.22
2023-04-11T06:49:14.863Z,80.77
2023-04-11T06:50:14.831Z,81.61
2023-04-11T06:51:14.858Z,82.95
2023-04-11T06:52:14.855Z,83.66
2023-04-11T06:53:14.835Z,82.34
2023-04-11T06:54:14.849Z,80.54
2023-04-11T06:55:14.867Z,81.66
2023-04-11T06:56:14.908Z,81.07
2023-04-11T06:57:15.049Z,81.65
2023-04-11T06:58:15.046Z,82.46
2023-04-11T06:59:15.083Z,82.65
2023-04-11T07:00:15.089Z,82.91
2023-04-11T07:01:15.267Z,84.06
2023-04-11T07:02:15.241Z,83.20
2023-04-11T07:03:15.270Z,84.70
2023-04-11T07:04:15.269Z,84.09
2023-04-11T07:05:15.258Z,85.76
2023-04-11T07:06:15.297Z,84.85
2023-04-11T07:07:15.324Z,86.51
2023-04-11T07:08:15.405Z,83.42
2023-04-11T07:09:15.364Z,86.84
2023-04-11T07:10:15.435Z,85.91
2023-04-11T07:11:15.436Z,87.80
2023-04-11T07:12:15.465Z,89.31
2023-04-11T07:13:15.504Z,88.68
2023-04-11T07:14:15.529Z,87.68
2023-04-11T07:15:15.623Z,90.94
2023-04-11T07:16:15.668Z,89.11
2023-04-11T07:17:15.664Z,88.09
2023-04-11T07:18:15.969Z,90.89
2023-04-11T07:19:17.359Z,85.57
2023-04-11T07:20:15.719Z,67.24
2023-04-11T07:21:15.867Z,77.78
2023-04-11T07:22:27.433Z,74.44
2023-04-11T07:23:15.826Z,75.01
2023-04-11T07:24:15.831Z,75.78
2023-04-11T07:25:15.806Z,75.76
2023-04-11T07:26:15.829Z,74.46
2023-04-11T07:27:15.788Z,70.07
2023-04-11T07:28:15.797Z,68.72
2023-04-11T07:29:15.770Z,66.21
2023-04-11T07:30:15.743Z,66.96
2023-04-11T07:31:15.790Z,68.81
2023-04-11T07:32:15.765Z,71.58
2023-04-11T07:33:15.772Z,72.66
2023-04-11T07:34:15.719Z,67.59
2023-04-11T07:35:15.757Z,68.70
2023-04-11T07:36:15.729Z,64.67
2023-04-11T07:37:15.719Z,65.57
2023-04-11T07:38:15.722Z,68.11
2023-04-11T07:39:15.682Z,64.39
2023-04-11T07:40:15.683Z,69.53
2023-04-11T07:41:15.669Z,74.27
2023-04-11T07:42:15.686Z,69.19
2023-04-11T07:43:16.139Z,71.10
2023-04-11T07:44:15.647Z,27.51
2023-04-11T07:45:15.654Z,26.22
2023-04-11T07:46:15.733Z,38.97
2023-04-11T07:47:15.667Z,38.02
2023-04-11T07:48:15.728Z,41.24
2023-04-11T07:49:15.670Z,28.64
2023-04-11T07:50:15.641Z,26.88
2023-04-11T07:51:15.603Z,49.45
2023-04-11T07:52:15.614Z,33.09
2023-04-11T07:53:15.610Z,32.57
2023-04-11T07:54:15.590Z,46.24
2023-04-11T07:55:15.653Z,85.54
2023-04-11T07:56:15.600Z,121.18
2023-04-11T07:57:15.558Z,188.95
2023-04-11T07:58:15.605Z,233.96
2023-04-11T07:59:15.536Z,250.00
2023-04-11T08:00:15.553Z,250.00
2023-04-11T08:01:15.517Z,246.19
2023-04-11T08:02:15.677Z,246.02
2023-04-11T08:03:15.694Z,243.55
2023-04-11T08:04:15.635Z,243.20
2023-04-11T08:05:15.569Z,244.87
2023-04-11T08:06:15.547Z,247.19
2023-04-11T08:07:15.526Z,250.00
2023-04-11T08:08:15.513Z,247.69
2023-04-11T08:09:15.500Z,249.54
2023-04-11T08:10:15.462Z,250.00
2023-04-11T08:11:15.472Z,249.82
2023-04-11T08:12:15.482Z,248.79
2023-04-11T08:13:15.463Z,248.43
2023-04-11T08:14:15.474Z,247.24
2023-04-11T08:15:15.468Z,246.49
2023-04-11T08:16:15.632Z,246.81
2023-04-11T08:17:27.182Z,243.84
2023-04-11T08:18:16.607Z,243.85
2023-04-11T08:19:15.409Z,233.77
2023-04-11T08:20:15.422Z,228.90
2023-04-11T08:21:15.386Z,227.86
2023-04-11T08:22:15.394Z,229.75
2023-04-11T08:23:15.379Z,228.46
2023-04-11T08:24:15.438Z,229.91
2023-04-11T08:25:15.390Z,230.17
2023-04-11T08:26:15.416Z,230.07
2023-04-11T08:27:15.456Z,227.97
2023-04-11T08:28:15.453Z,224.12
2023-04-11T08:29:15.531Z,224.17
2023-04-11T08:30:15.530Z,215.90
2023-04-11T08:31:15.769Z,211.31
2023-04-11T08:32:15.690Z,207.77
2023-04-11T08:33:15.753Z,203.87
2023-04-11T08:34:15.774Z,203.43
2023-04-11T08:35:15.823Z,201.14
2023-04-11T08:36:15.915Z,198.15
2023-04-11T08:37:15.913Z,198.52
2023-04-11T08:38:15.959Z,200.95
2023-04-11T08:39:16.031Z,197.89
2023-04-11T08:40:16.103Z,196.75
2023-04-11T08:41:16.113Z,197.12
2023-04-11T08:42:16.153Z,197.73
2023-04-11T08:43:16.197Z,200.42
2023-04-11T08:44:16.228Z,199.66
2023-04-11T08:45:16.255Z,201.59
2023-04-11T08:46:16.344Z,203.19
2023-04-11T08:47:16.347Z,203.71
2023-04-11T08:48:16.383Z,199.33
2023-04-11T08:49:16.485Z,202.06
2023-04-11T08:50:16.692Z,197.40
2023-04-11T08:51:16.476Z,202.43
2023-04-11T08:52:16.518Z,199.48
2023-04-11T08:53:16.577Z,195.72
2023-04-11T08:54:16.563Z,195.99
2023-04-11T08:55:16.597Z,193.63
2023-04-11T08:56:16.608Z,191.92
2023-04-11T08:57:16.668Z,193.57
2023-04-11T08:58:16.739Z,195.83
2023-04-11T08:59:16.750Z,189.66
2023-04-11T09:00:16.819Z,191.74
2023-04-11T09:01:16.812Z,190.24
2023-04-11T09:02:16.877Z,189.27
2023-04-11T09:03:16.940Z,193.10
2023-04-11T09:04:16.965Z,184.05
2023-04-11T09:05:16.960Z,191.28
2023-04-11T09:06:16.937Z,189.16
2023-04-11T09:07:16.981Z,186.28
2023-04-11T09:08:16.980Z,183.43
2023-04-11T09:09:17.016Z,188.23
2023-04-11T09:10:17.071Z,185.16
2023-04-11T09:11:17.078Z,186.77
2023-04-11T09:12:17.135Z,188.12
2023-04-11T09:13:17.161Z,189.01
2023-04-11T09:14:17.191Z,188.34
2023-04-11T09:15:17.228Z,184.88
2023-04-11T09:16:17.257Z,187.10
2023-04-11T09:17:17.281Z,187.26
2023-04-11T09:18:17.251Z,187.28
2023-04-11T09:19:17.301Z,184.59
2023-04-11T09:20:17.271Z,187.03
2023-04-11T09:21:17.311Z,182.64
2023-04-11T09:22:17.327Z,188.25
2023-04-11T09:23:17.404Z,187.44
2023-04-11T09:24:17.422Z,189.72
2023-04-11T09:25:17.453Z,184.25
2023-04-11T09:26:17.458Z,182.76
2023-04-11T09:27:17.471Z,178.63
2023-04-11T09:28:17.462Z,177.19
2023-04-11T09:29:17.532Z,172.64
2023-04-11T09:30:17.537Z,177.07
2023-04-11T09:31:17.594Z,178.03
2023-04-11T09:32:17.579Z,176.35
2023-04-11T09:33:17.619Z,176.62
2023-04-11T09:34:17.636Z,173.60
2023-04-11T09:35:17.627Z,177.47
2023-04-11T09:36:17.651Z,171.09
2023-04-11T09:37:17.669Z,168.91
2023-04-11T09:38:17.681Z,174.71
2023-04-11T09:39:17.794Z,177.03
2023-04-11T09:40:17.787Z,172.65
2023-04-11T09:41:17.765Z,176.66
2023-04-11T09:42:17.900Z,177.44
2023-04-11T09:43:19.893Z,178.52
2023-04-11T09:44:17.891Z,176.28
2023-04-11T09:45:17.919Z,176.81
2023-04-11T09:46:17.937Z,178.31
2023-04-11T09:47:17.965Z,174.57
2023-04-11T09:48:17.970Z,173.59
2023-04-11T09:49:17.933Z,174.02
2023-04-11T09:50:17.971Z,167.88
2023-04-11T09:51:34.234Z,166.49
2023-04-11T09:52:18.976Z,166.67
2023-04-11T09:53:17.983Z,167.50
2023-04-11T09:54:17.989Z,167.20
2023-04-11T09:55:17.952Z,170.84
2023-04-11T09:56:17.927Z,171.13
2023-04-11T09:57:17.946Z,166.97
2023-04-11T09:58:17.889Z,161.17
2023-04-11T09:59:17.928Z,152.37
2023-04-11T10:00:17.940Z,157.94
2023-04-11T10:01:17.961Z,158.20
2023-04-11T10:02:17.963Z,157.81
2023-04-11T10:03:17.920Z,157.70
2023-04-11T10:04:17.906Z,152.27
2023-04-11T10:05:17.888Z,155.22
2023-04-11T10:06:17.872Z,159.47
2023-04-11T10:07:17.865Z,158.44
2023-04-11T10:08:17.873Z,138.68
2023-04-11T10:09:17.847Z,138.06
2023-04-11T10:10:17.886Z,111.80
2023-04-11T10:11:17.826Z,94.48
2023-04-11T10:12:17.812Z,39.81
2023-04-11T10:13:17.804Z,28.54
2023-04-11T10:14:17.847Z,38.71
2023-04-11T10:15:17.903Z,62.12
2023-04-11T10:16:17.833Z,121.89
2023-04-11T10:17:21.360Z,137.10
2023-04-11T10:18:17.834Z,137.49
2023-04-11T10:19:17.793Z,139.11
2023-04-11T10:20:17.791Z,142.24
2023-04-11T10:21:17.780Z,145.68
2023-04-11T10:22:17.798Z,151.41
2023-04-11T10:23:17.803Z,150.72
2023-04-11T10:24:18.130Z,151.42
2023-04-11T10:25:17.885Z,154.11
2023-04-11T10:26:17.783Z,156.76
2023-04-11T10:27:17.773Z,154.03
2023-04-11T10:28:17.737Z,152.96
2023-04-11T10:29:17.763Z,150.99
2023-04-11T10:30:17.799Z,148.92
2023-04-11T10:31:17.816Z,147.28
2023-04-11T10:32:17.709Z,148.92
2023-04-11T10:33:17.825Z,149.19
2023-04-11T10:34:17.735Z,148.44
2023-04-11T10:35:17.713Z,147.52
2023-04-11T10:36:17.785Z,146.16
2023-04-11T10:37:17.735Z,143.88
2023-04-11T10:38:17.774Z,150.93
2023-04-11T10:39:17.813Z,147.52
2023-04-11T10:40:17.865Z,144.74
2023-04-11T10:41:17.944Z,144.56
2023-04-11T10:42:17.848Z,143.34
2023-04-11T10:43:17.877Z,140.16
2023-04-11T10:44:17.944Z,137.97
2023-04-11T10:45:17.929Z,145.08
2023-04-11T10:46:18.056Z,141.99
2023-04-11T10:47:18.058Z,149.59
2023-04-11T10:48:18.005Z,147.18
2023-04-11T10:49:18.035Z,150.86
2023-04-11T10:50:18.040Z,150.49
2023-04-11T10:51:18.071Z,150.48
2023-04-11T10:52:18.071Z,152.62
2023-04-11T10:53:18.137Z,146.30
2023-04-11T10:54:18.081Z,145.03
2023-04-11T10:55:18.106Z,146.03
2023-04-11T10:56:18.195Z,144.46
2023-04-11T10:57:18.156Z,147.02
2023-04-11T10:58:18.226Z,150.51
2023-04-11T10:59:18.242Z,146.46
2023-04-11T11:00:18.355Z,146.44
2023-04-11T11:01:31.482Z,145.01
2023-04-11T11:02:19.472Z,145.28
2023-04-11T11:03:18.471Z,145.81
2023-04-11T11:04:18.670Z,147.19
2023-04-11T11:05:18.287Z,147.06
2023-04-11T11:06:18.247Z,150.31
2023-04-11T11:07:18.276Z,148.41
2023-04-11T11:08:18.287Z,149.42
2023-04-11T11:09:18.236Z,148.73
2023-04-11T11:10:18.263Z,144.73
2023-04-11T11:11:18.267Z,149.83
2023-04-11T11:12:18.204Z,148.20
2023-04-11T11:13:18.278Z,148.30
2023-04-11T11:14:18.176Z,147.89
2023-04-11T11:15:18.148Z,145.30
2023-04-11T11:16:18.241Z,133.53
2023-04-11T11:17:18.168Z,137.00
2023-04-11T11:18:18.213Z,141.41
2023-04-11T11:19:18.188Z,126.13
2023-04-11T11:20:18.306Z,105.08
2023-04-11T11:21:26.816Z,123.12
2023-04-11T11:22:19.240Z,123.39
2023-04-11T11:23:18.197Z,124.58
2023-04-11T11:24:18.268Z,127.79
2023-04-11T11:25:18.199Z,134.74
2023-04-11T11:26:19.192Z,123.98
2023-04-11T11:27:18.230Z,126.02
2023-04-11T11:28:18.150Z,130.37
2023-04-11T11:29:18.177Z,137.62
2023-04-11T11:30:18.137Z,143.05
2023-04-11T11:31:18.262Z,144.94
2023-04-11T11:32:18.166Z,144.27
2023-04-11T11:33:18.145Z,144.91
2023-04-11T11:35:18.124Z,146.15
2023-04-11T11:36:18.096Z,145.67
2023-04-11T11:37:18.111Z,145.10
2023-04-11T11:38:18.082Z,146.93
2023-04-11T11:39:18.707Z,148.23
2023-04-11T11:40:18.080Z,146.04
2023-04-11T11:41:18.042Z,146.40
2023-04-11T11:42:18.154Z,142.77
2023-04-11T11:43:18.063Z,137.67
2023-04-11T11:44:18.040Z,142.94
2023-04-11T11:45:18.086Z,142.37
2023-04-11T11:46:18.125Z,142.67
2023-04-11T11:47:18.143Z,140.95
2023-04-11T11:48:18.050Z,136.37
2023-04-11T11:49:18.042Z,138.77
2023-04-11T11:50:18.029Z,132.86
2023-04-11T11:51:18.030Z,133.81
2023-04-11T11:52:18.042Z,134.51
2023-04-11T11:53:17.977Z,133.97
2023-04-11T11:54:17.973Z,137.06
2023-04-11T11:55:18.029Z,135.46
2023-04-11T11:56:17.979Z,133.03
2023-04-11T11:57:17.942Z,130.56
2023-04-11T11:58:17.970Z,127.82
2023-04-11T11:59:17.956Z,121.64
2023-04-11T12:00:17.952Z,123.84
2023-04-11T12:01:17.992Z,120.64
2023-04-11T12:02:18.073Z,118.55
2023-04-11T12:03:18.028Z,118.30
2023-04-11T12:04:18.012Z,117.43
2023-04-11T12:05:17.952Z,120.10
2023-04-11T12:06:17.911Z,122.24
2023-04-11T12:07:17.899Z,119.52
2023-04-11T12:08:17.880Z,95.07
2023-04-11T12:09:17.945Z,83.04
2023-04-11T12:10:17.899Z,48.04
2023-04-11T12:11:17.973Z,24.27
2023-04-11T12:12:17.875Z,25.00
2023-04-11T12:13:17.858Z,20.96
2023-04-11T12:14:17.850Z,23.77
2023-04-11T12:15:17.862Z,26.53
2023-04-11T12:16:17.910Z,27.13
2023-04-11T12:17:17.864Z,27.99
2023-04-11T12:18:17.856Z,25.96
2023-04-11T12:19:17.829Z,25.18
2023-04-11T12:20:17.850Z,25.01
2023-04-11T12:21:17.851Z,26.77
2023-04-11T12:22:17.814Z,26.24
2023-04-11T12:23:17.814Z,27.90
2023-04-11T12:24:17.798Z,26.42
2023-04-11T12:25:17.787Z,25.00
2023-04-11T12:26:17.830Z,24.35
2023-04-11T12:27:17.800Z,27.29
2023-04-11T12:28:17.822Z,24.75
2023-04-11T12:29:17.779Z,25.05
2023-04-11T12:30:17.829Z,23.81
2023-04-11T12:31:17.795Z,25.00
2023-04-11T12:32:17.735Z,26.56
2023-04-11T12:33:17.776Z,25.00
2023-04-11T12:34:17.747Z,25.46
2023-04-11T12:35:17.729Z,26.16
2023-04-11T12:36:17.743Z,27.17
2023-04-11T12:37:17.701Z,24.66
2023-04-11T12:38:18.153Z,26.77
2023-04-11T12:39:17.741Z,28.16
2023-04-11T12:40:17.764Z,26.28
2023-04-11T12:41:30.920Z,30.49
2023-04-11T12:42:20.991Z,30.55
2023-04-11T12:43:18.768Z,30.50
2023-04-11T12:44:17.755Z,31.05
2023-04-11T12:45:17.753Z,31.10
2023-04-11T12:46:17.759Z,31.78
2023-04-11T12:47:17.733Z,34.14
2023-04-11T12:48:17.739Z,34.42
2023-04-11T12:49:17.746Z,35.12
2023-04-11T12:50:17.692Z,33.04
2023-04-11T12:51:17.682Z,29.28
2023-04-11T12:52:17.754Z,31.62
2023-04-11T12:53:17.701Z,29.88
2023-04-11T12:54:17.733Z,31.30
2023-04-11T12:55:17.708Z,27.47
2023-04-11T12:56:17.700Z,28.57
2023-04-11T12:57:17.668Z,27.07
2023-04-11T12:58:17.646Z,25.72
2023-04-11T12:59:17.656Z,26.48
2023-04-11T13:00:17.623Z,25.00
2023-04-11T13:01:17.672Z,29.25
2023-04-11T13:02:17.717Z,29.39
2023-04-11T13:03:17.811Z,25.00
2023-04-11T13:04:17.672Z,28.99
2023-04-11T13:05:17.642Z,28.12
2023-04-11T13:06:17.612Z,27.89
2023-04-11T13:07:17.631Z,28.61
2023-04-11T13:08:17.557Z,28.67
2023-04-11T13:09:17.596Z,29.41
2023-04-11T13:10:17.565Z,31.46
2023-04-11T13:11:17.560Z,31.10
2023-04-11T13:12:17.560Z,31.16
2023-04-11T13:13:18.852Z,30.55
2023-04-11T13:14:17.536Z,31.56
2023-04-11T13:15:17.570Z,30.30
2023-04-11T13:16:17.553Z,31.99
2023-04-11T13:17:17.496Z,33.84
2023-04-11T13:18:17.532Z,30.36
2023-04-11T13:19:17.526Z,30.20
2023-04-11T13:20:17.472Z,34.18
2023-04-11T13:21:17.490Z,32.93
2023-04-11T13:22:17.490Z,32.98
2023-04-11T13:23:17.647Z,31.49
2023-04-11T13:24:17.495Z,28.98
2023-04-11T13:25:17.490Z,28.49
2023-04-11T13:26:17.507Z,30.45
2023-04-11T13:27:17.465Z,25.70
2023-04-11T13:28:17.494Z,28.02
2023-04-11T13:29:17.437Z,25.68
2023-04-11T13:30:17.445Z,28.03
2023-04-11T13:31:17.543Z,25.88
2023-04-11T13:32:17.558Z,26.10
2023-04-11T13:33:17.548Z,25.00
2023-04-11T13:34:17.535Z,26.90
2023-04-11T13:35:17.573Z,26.72
2023-04-11T13:36:17.600Z,27.82
2023-04-11T13:37:17.601Z,26.97
2023-04-11T13:38:17.693Z,28.53
2023-04-11T13:39:17.677Z,26.36
2023-04-11T13:40:17.709Z,27.12
2023-04-11T13:41:17.710Z,28.59
2023-04-11T13:42:17.759Z,28.83
2023-04-11T13:43:17.835Z,30.44
2023-04-11T13:44:17.835Z,29.75
2023-04-11T13:45:17.892Z,28.65
2023-04-11T13:46:17.980Z,34.23
2023-04-11T13:47:17.970Z,35.62
2023-04-11T13:48:17.967Z,33.10
2023-04-11T13:49:18.002Z,41.94
2023-04-11T13:50:18.117Z,39.42
2023-04-11T13:51:18.089Z,38.84
2023-04-11T13:52:18.120Z,37.90
2023-04-11T13:53:18.152Z,33.95
2023-04-11T13:54:18.250Z,32.21
2023-04-11T13:55:18.180Z,35.22
2023-04-11T13:56:18.262Z,37.08
2023-04-11T13:57:18.257Z,37.34
2023-04-11T13:58:18.270Z,37.91
2023-04-11T13:59:18.347Z,38.56
2023-04-11T14:00:18.341Z,39.73
2023-04-11T14:01:18.399Z,43.27
2023-04-11T14:02:18.465Z,49.80
2023-04-11T14:03:18.494Z,61.80
2023-04-11T14:04:18.554Z,69.70
2023-04-11T14:05:18.477Z,67.94
2023-04-11T14:06:18.510Z,70.27
2023-04-11T14:07:18.537Z,72.81
2023-04-11T14:08:18.547Z,81.18
2023-04-11T14:09:18.625Z,82.60
2023-04-11T14:10:18.612Z,86.22
2023-04-11T14:11:18.662Z,90.94
2023-04-11T14:12:18.743Z,95.26
2023-04-11T14:13:18.661Z,93.65
2023-04-11T14:14:18.718Z,98.29
2023-04-11T14:15:19.975Z,116.22
2023-04-11T14:16:18.801Z,127.05
2023-04-11T14:17:18.733Z,138.25
2023-04-11T14:18:18.739Z,156.75
2023-04-11T14:19:18.735Z,171.16
2023-04-11T14:20:18.833Z,206.50
2023-04-11T14:21:18.803Z,219.00
2023-04-11T14:22:18.832Z,253.92
2023-04-11T14:23:18.819Z,269.91
2023-04-11T14:24:18.936Z,268.46
2023-04-11T14:25:18.850Z,237.73
2023-04-11T14:26:18.881Z,228.01
2023-04-11T14:27:18.883Z,223.42
2023-04-11T14:28:18.906Z,221.98
2023-04-11T14:29:20.934Z,228.39
2023-04-11T14:30:18.899Z,216.84
2023-04-11T14:31:18.970Z,215.60
2023-04-11T14:32:18.896Z,216.23
2023-04-11T14:33:18.867Z,213.71
2023-04-11T14:34:18.881Z,208.06
2023-04-11T14:35:18.883Z,207.18
2023-04-11T14:36:18.859Z,208.17
2023-04-11T14:37:18.849Z,208.24
2023-04-11T14:38:18.809Z,206.55
2023-04-11T14:39:18.850Z,206.93
2023-04-11T14:40:18.842Z,206.86
2023-04-11T14:41:18.805Z,208.20
2023-04-11T14:42:18.821Z,206.90
2023-04-11T14:43:18.772Z,208.00
2023-04-11T14:44:18.796Z,206.25
2023-04-11T14:45:18.817Z,204.83
2023-04-11T14:46:18.807Z,206.54
2023-04-11T14:47:18.775Z,204.82
2023-04-11T14:48:18.734Z,205.80
2023-04-11T14:49:18.728Z,205.35
2023-04-11T14:50:18.758Z,204.72
2023-04-11T14:51:18.760Z,203.22
2023-04-11T14:52:18.712Z,204.21
2023-04-11T14:53:18.717Z,203.79
2023-04-11T14:54:18.716Z,202.97
2023-04-11T14:55:18.684Z,202.41
2023-04-11T14:56:18.728Z,203.58
2023-04-11T14:57:18.708Z,201.77
2023-04-11T14:58:18.670Z,203.60
2023-04-11T14:59:18.672Z,202.41
2023-04-11T15:00:18.666Z,203.26
2023-04-11T15:01:18.676Z,201.65
2023-04-11T15:02:18.823Z,201.58
2023-04-11T15:03:18.834Z,203.06
2023-04-11T15:04:18.816Z,201.50
2023-04-11T15:05:18.632Z,203.36
2023-04-11T15:06:18.681Z,201.59
2023-04-11T15:07:18.637Z,201.76
2023-04-11T15:08:18.660Z,201.11
2023-04-11T15:09:18.623Z,202.29
2023-04-11T15:10:18.631Z,201.17
2023-04-11T15:11:18.573Z,202.10
2023-04-11T15:12:18.582Z,201.03
2023-04-11T15:13:18.580Z,201.40
2023-04-11T15:14:18.649Z,202.06
2023-04-11T15:15:18.556Z,200.27
2023-04-11T15:16:19.463Z,200.95
2023-04-11T15:17:18.567Z,201.89
2023-04-11T15:18:18.702Z,201.69
2023-04-11T15:19:18.560Z,199.39
2023-04-11T15:20:18.524Z,200.38
2023-04-11T15:21:18.526Z,199.94
2023-04-11T15:22:18.543Z,199.48
2023-04-11T15:23:18.555Z,199.94
2023-04-11T15:24:18.538Z,200.82
2023-04-11T15:25:18.648Z,199.77
2023-04-11T15:26:18.726Z,199.28
2023-04-11T15:27:18.804Z,198.52
2023-04-11T15:28:18.944Z,198.31
2023-04-11T15:29:19.010Z,198.78
2023-04-11T15:30:19.111Z,197.15
2023-04-11T15:31:19.297Z,197.64
2023-04-11T15:32:19.205Z,195.69
2023-04-11T15:33:19.207Z,198.00
2023-04-11T15:34:19.219Z,195.54
2023-04-11T15:35:19.208Z,196.28
2023-04-11T15:36:19.222Z,195.90
2023-04-11T15:37:19.283Z,195.97
2023-04-11T15:38:19.314Z,196.08
2023-04-11T15:39:19.312Z,196.91
2023-04-11T15:40:19.310Z,195.87
2023-04-11T15:41:19.295Z,194.40
2023-04-11T15:42:19.320Z,194.71
2023-04-11T15:43:19.407Z,195.87
2023-04-11T15:44:19.526Z,195.14
2023-04-11T15:45:19.597Z,195.02
2023-04-11T15:46:19.613Z,194.52
2023-04-11T15:47:19.593Z,193.82
2023-04-11T15:48:19.600Z,194.47
2023-04-11T15:49:19.607Z,194.89
2023-04-11T15:50:19.599Z,196.20
2023-04-11T15:51:19.702Z,193.95
2023-04-11T15:52:19.717Z,193.93
2023-04-11T15:53:19.754Z,193.81
2023-04-11T15:54:19.703Z,193.57
2023-04-11T15:55:19.731Z,192.56
2023-04-11T15:56:20.151Z,193.69
2023-04-11T15:57:19.832Z,190.62
2023-04-11T15:58:19.924Z,193.33
2023-04-11T15:59:20.041Z,192.42
2023-04-11T16:00:20.023Z,192.00
2023-04-11T16:01:20.068Z,190.94
2023-04-11T16:02:20.102Z,191.29
2023-04-11T16:03:20.326Z,190.77
2023-04-11T16:04:20.232Z,190.65
2023-04-11T16:05:20.178Z,191.11
2023-04-11T16:06:20.052Z,190.75
2023-04-11T16:07:20.170Z,189.95
2023-04-11T16:08:20.190Z,191.62
2023-04-11T16:09:20.183Z,191.42
2023-04-11T16:10:20.151Z,189.38
2023-04-11T16:11:20.167Z,188.52
2023-04-11T16:12:20.171Z,189.56
2023-04-11T16:13:20.256Z,188.13
2023-04-11T16:14:20.239Z,188.22
2023-04-11T16:15:20.276Z,187.77
2023-04-11T16:16:20.307Z,188.85
2023-04-11T16:17:20.254Z,188.82
2023-04-11T16:18:20.271Z,188.81
2023-04-11T16:19:20.334Z,189.58
2023-04-11T16:20:21.176Z,188.81
2023-04-11T16:21:20.465Z,186.97
2023-04-11T16:22:20.425Z,188.57
2023-04-11T16:23:20.469Z,185.78
2023-04-11T16:24:20.528Z,187.22
2023-04-11T16:25:20.548Z,187.25
2023-04-11T16:26:20.643Z,186.39
2023-04-11T16:27:20.612Z,186.92
2023-04-11T16:28:20.667Z,187.64
2023-04-11T16:29:20.614Z,187.95
2023-04-11T16:30:20.684Z,186.82
2023-04-11T16:31:20.689Z,186.01
2023-04-11T16:32:20.728Z,185.80
2023-04-11T16:33:20.854Z,185.45
2023-04-11T16:34:20.837Z,186.32
2023-04-11T16:35:20.825Z,185.39
2023-04-11T16:36:20.833Z,185.87
2023-04-11T16:37:20.855Z,186.71
2023-04-11T16:38:20.844Z,186.85
2023-04-11T16:39:20.873Z,184.61
2023-04-11T16:40:20.885Z,184.75
2023-04-11T16:41:21.032Z,184.81
2023-04-11T16:42:21.000Z,182.30
2023-04-11T16:43:21.116Z,185.08
2023-04-11T16:44:21.096Z,183.63
2023-04-11T16:45:21.010Z,184.16
2023-04-11T16:46:21.070Z,182.70
2023-04-11T16:47:21.112Z,182.59
2023-04-11T16:48:21.214Z,183.16
2023-04-11T16:49:21.246Z,183.01
2023-04-11T16:50:21.198Z,182.89
2023-04-11T16:51:21.179Z,182.02
2023-04-11T16:52:21.185Z,182.07
2023-04-11T16:53:21.243Z,183.86
2023-04-11T16:54:21.353Z,181.58
2023-04-11T16:55:21.416Z,181.93
2023-04-11T16:56:21.369Z,182.30
2023-04-11T16:57:21.382Z,181.07
2023-04-11T16:58:21.371Z,183.38
2023-04-11T16:59:21.393Z,183.72
2023-04-11T17:00:21.512Z,182.02
